Time;durP1;ratioP1;P1;durP2;ratioP2;P2;SDS_P1;SDS_P2;PMS_P1;PMS_P2;Temp;Humidity;BMP_temperature;BMP_pressure;BME280_temperature;BME280_humidity;BME280_pressure;Samples;Min_cycle;Max_cycle;Signal;HPM_P1;HPM_P2
2022/04/18 00:00:00;;;;;;;8.73;7.00;;;;;16.60;101892.00;;;;5058153;28;20253;-78
2022/04/18 00:02:27;;;;;;;7.82;6.40;;;;;16.60;101886.00;;;;5058824;28;20203;-77
2022/04/18 00:04:55;;;;;;;8.00;5.93;;;;;16.60;101883.00;;;;5071635;28;20630;-77
2022/04/18 00:07:22;;;;;;;8.60;6.68;;;;;16.50;101884.00;;;;5068799;28;20202;-77
2022/04/18 00:09:49;;;;;;;10.55;6.47;;;;;16.50;101882.00;;;;5070482;28;20196;-77
2022/04/18 00:12:18;;;;;;;6.88;5.55;;;;;16.40;101879.00;;;;5059861;28;20195;-77
2022/04/18 00:14:46;;;;;;;7.22;6.30;;;;;16.40;101874.00;;;;5058659;28;20223;-77
2022/04/18 00:17:14;;;;;;;8.10;6.60;;;;;16.30;101873.00;;;;5056396;28;20210;-77
2022/04/18 00:19:41;;;;;;;9.38;6.40;;;;;16.30;101871.00;;;;5054879;28;20198;-77
2022/04/18 00:22:09;;;;;;;8.32;6.53;;;;;16.20;101875.00;;;;5071512;28;20201;-77
2022/04/18 00:24:36;;;;;;;7.90;6.50;;;;;16.20;101873.00;;;;5070713;28;20195;-77
2022/04/18 00:27:04;;;;;;;7.53;6.20;;;;;16.10;101870.00;;;;5067026;28;20892;-77
2022/04/18 00:29:32;;;;;;;8.38;6.90;;;;;16.10;101872.00;;;;5055371;28;20222;-77
2022/04/18 00:31:59;;;;;;;8.02;6.47;;;;;16.10;101864.00;;;;5056835;28;20195;-77
2022/04/18 00:34:28;;;;;;;8.23;6.55;;;;;16.00;101862.00;;;;5068568;28;20226;-77
2022/04/18 00:36:55;;;;;;;9.10;6.22;;;;;16.00;101862.00;;;;5054451;28;20242;-77
2022/04/18 00:39:22;;;;;;;8.95;7.03;;;;;15.90;101862.00;;;;5061675;28;20211;-77
2022/04/18 00:41:50;;;;;;;7.07;5.90;;;;;15.90;101870.00;;;;5056953;28;20209;-77
2022/04/18 00:44:17;;;;;;;11.57;7.32;;;;;15.90;101870.00;;;;5055546;28;20195;-77
2022/04/18 00:46:44;;;;;;;10.32;6.63;;;;;15.90;101870.00;;;;5073845;28;20207;-77
2022/04/18 00:49:12;;;;;;;8.65;6.60;;;;;15.80;101869.00;;;;5070834;28;20202;-77
2022/04/18 00:51:41;;;;;;;9.18;6.38;;;;;15.80;101864.00;;;;5055441;28;20250;-77
2022/04/18 00:54:11;;;;;;;10.18;7.07;;;;;15.70;101870.00;;;;5064701;28;20202;-77
2022/04/18 00:56:38;;;;;;;9.00;6.72;;;;;15.70;101863.00;;;;5068850;28;21128;-77
2022/04/18 00:59:05;;;;;;;7.82;6.47;;;;;15.70;101865.00;;;;5050356;28;20211;-77
2022/04/18 01:01:33;;;;;;;8.98;6.72;;;;;15.60;101862.00;;;;5051481;28;20199;-76
2022/04/18 01:04:00;;;;;;;8.52;6.95;;;;;15.60;101865.00;;;;5062991;28;20202;-77
2022/04/18 01:06:27;;;;;;;8.25;6.55;;;;;15.60;101856.00;;;;5058628;28;20191;-77
2022/04/18 01:08:56;;;;;;;10.35;6.47;;;;;15.50;101857.00;;;;5070939;28;20198;-76
2022/04/18 01:11:23;;;;;;;7.68;6.50;;;;;15.50;101859.00;;;;5062456;28;20195;-77
2022/04/18 01:13:50;;;;;;;9.23;6.85;;;;;15.40;101851.00;;;;5069279;28;20594;-76
2022/04/18 01:16:18;;;;;;;8.45;6.18;;;;;15.40;101853.00;;;;5064823;28;20234;-77
2022/04/18 01:18:46;;;;;;;8.65;6.85;;;;;15.40;101857.00;;;;5056890;28;20408;-76
2022/04/18 01:21:19;;;;;;;10.10;6.88;;;;;15.30;101861.00;;;;5067685;28;20202;-76
2022/04/18 01:23:47;;;;;;;7.40;5.97;;;;;15.30;101851.00;;;;5054221;28;20227;-76
2022/04/18 01:28:59;;;;;;;10.93;6.20;;;;;15.20;101857.00;;;;5063900;28;20221;-77
2022/04/18 01:31:27;;;;;;;8.48;6.63;;;;;15.20;101853.00;;;;5056842;28;20199;-77
2022/04/18 01:33:55;;;;;;;8.13;6.68;;;;;15.10;101848.00;;;;5067368;28;20665;-76
2022/04/18 01:36:24;;;;;;;9.80;7.45;;;;;15.10;101847.00;;;;5061600;28;20227;-77
2022/04/18 01:38:51;;;;;;;9.95;7.22;;;;;15.10;101848.00;;;;5068344;28;20198;-76
2022/04/18 01:41:19;;;;;;;8.95;7.15;;;;;15.00;101846.00;;;;5068173;28;20195;-76
2022/04/18 01:43:47;;;;;;;9.18;7.43;;;;;15.00;101842.00;;;;5066999;28;20645;-76
2022/04/18 01:46:15;;;;;;;8.82;6.68;;;;;15.00;101843.00;;;;5061570;28;20553;-76
2022/04/18 01:48:43;;;;;;;7.47;6.05;;;;;14.90;101845.00;;;;5065438;28;20232;-76
2022/04/18 01:51:10;;;;;;;9.50;6.80;;;;;14.90;101845.00;;;;5053719;28;20203;-76
2022/04/18 01:53:39;;;;;;;8.52;7.13;;;;;14.90;101842.00;;;;5048278;28;20456;-76
2022/04/18 01:56:07;;;;;;;9.77;7.22;;;;;14.80;101846.00;;;;5055817;28;20262;-77
2022/04/18 01:58:34;;;;;;;11.68;6.45;;;;;14.80;101834.00;;;;5060294;28;21071;-76
2022/04/18 02:01:01;;;;;;;8.88;6.93;;;;;14.80;101830.00;;;;5066252;28;20198;-76
2022/04/18 02:03:29;;;;;;;8.63;7.10;;;;;14.70;101830.00;;;;5068686;28;20256;-77
2022/04/18 02:05:57;;;;;;;9.68;7.43;;;;;14.70;101828.00;;;;5066587;28;20199;-76
2022/04/18 02:08:26;;;;;;;9.13;6.97;;;;;14.70;101830.00;;;;5054544;28;20606;-76
2022/04/18 02:10:55;;;;;;;9.50;6.72;;;;;14.60;101825.00;;;;5066141;28;20199;-76
2022/04/18 02:13:22;;;;;;;8.68;7.00;;;;;14.60;101824.00;;;;5068342;28;20645;-77
2022/04/18 02:15:50;;;;;;;8.65;6.38;;;;;14.60;101826.00;;;;5061930;28;20222;-77
2022/04/18 02:18:17;;;;;;;7.80;6.70;;;;;14.60;101827.00;;;;5067266;28;20293;-77
2022/04/18 02:20:44;;;;;;;9.07;6.75;;;;;14.60;101834.00;;;;5054631;28;20198;-76
2022/04/18 02:23:11;;;;;;;8.05;6.45;;;;;14.50;101825.00;;;;5049060;28;20241;-76
2022/04/18 02:25:39;;;;;;;9.82;7.07;;;;;14.50;101826.00;;;;5054433;28;20203;-76
2022/04/18 02:28:08;;;;;;;9.30;7.50;;;;;14.40;101824.00;;;;5053482;28;20191;-77
2022/04/18 02:30:35;;;;;;;9.77;7.53;;;;;14.40;101823.00;;;;5061985;28;20242;-76
2022/04/18 02:33:02;;;;;;;7.47;6.50;;;;;14.40;101828.00;;;;5056115;28;20203;-76
2022/04/18 02:35:29;;;;;;;8.30;6.57;;;;;14.40;101827.00;;;;5062504;28;20219;-76
2022/04/18 02:37:56;;;;;;;8.50;7.63;;;;;14.30;101826.00;;;;5067139;28;20199;-76
2022/04/18 02:40:24;;;;;;;7.93;6.75;;;;;14.30;101824.00;;;;5063447;28;20719;-76
2022/04/18 02:42:51;;;;;;;8.68;6.22;;;;;14.30;101824.00;;;;5058021;28;20210;-76
2022/04/18 02:45:23;;;;;;;9.27;6.57;;;;;14.20;101825.00;;;;5058498;28;20252;-76
2022/04/18 02:47:50;;;;;;;8.32;6.50;;;;;14.20;101818.00;;;;5065547;28;20218;-76
2022/04/18 02:50:20;;;;;;;7.43;6.05;;;;;14.10;101823.00;;;;5068960;28;20195;-76
2022/04/18 02:52:48;;;;;;;9.60;6.63;;;;;14.10;101813.00;;;;5060764;28;20587;-76
2022/04/18 02:55:15;;;;;;;8.13;6.43;;;;;14.10;101810.00;;;;5062021;28;20223;-76
2022/04/18 02:57:42;;;;;;;9.05;5.88;;;;;14.00;101804.00;;;;5065892;28;20355;-76
2022/04/18 03:00:10;;;;;;;7.05;6.25;;;;;14.00;101807.00;;;;5069205;28;20261;-77
2022/04/18 03:02:40;;;;;;;8.35;6.25;;;;;14.00;101801.00;;;;5061533;28;20203;-77
2022/04/18 03:05:10;;;;;;;6.95;6.07;;;;;13.90;101802.00;;;;5062644;28;20762;-76
2022/04/18 03:07:38;;;;;;;6.72;5.88;;;;;13.90;101794.00;;;;5064142;28;20190;-77
2022/04/18 03:10:06;;;;;;;8.80;5.93;;;;;13.90;101788.00;;;;5062819;28;20207;-76
2022/04/18 03:12:34;;;;;;;8.07;5.93;;;;;13.80;101784.00;;;;5064696;28;20188;-77
2022/04/18 03:15:02;;;;;;;9.30;6.40;;;;;13.80;101779.00;;;;5058430;28;20202;-76
2022/04/18 03:17:29;;;;;;;6.57;5.68;;;;;13.80;101786.00;;;;5067753;28;20199;-76
2022/04/18 03:19:58;;;;;;;6.82;5.40;;;;;13.70;101783.00;;;;5069327;28;20845;-76
2022/04/18 03:22:25;;;;;;;6.63;5.65;;;;;13.70;101787.00;;;;5062130;28;20671;-76
2022/04/18 03:24:53;;;;;;;9.25;5.30;;;;;13.70;101784.00;;;;5059133;28;20191;-76
2022/04/18 03:27:21;;;;;;;7.10;5.60;;;;;13.60;101775.00;;;;5063674;28;20202;-76
2022/04/18 03:29:49;;;;;;;6.40;5.45;;;;;13.60;101783.00;;;;5068796;28;20314;-77
2022/04/18 03:32:16;;;;;;;6.57;5.35;;;;;13.60;101782.00;;;;5068759;28;20330;-76
2022/04/18 03:34:43;;;;;;;7.07;5.72;;;;;13.60;101774.00;;;;5070161;28;20277;-77
2022/04/18 03:39:57;;;;;;;6.47;5.30;;;;;13.50;101774.00;;;;5058538;28;20225;-76
2022/04/18 03:42:32;;;;;;;6.40;5.15;;;;;13.40;101784.00;;;;5053783;28;20326;-77
2022/04/18 03:45:01;;;;;;;5.75;4.97;;;;;13.40;101784.00;;;;5063817;28;20214;-76
2022/04/18 03:47:28;;;;;;;7.90;5.60;;;;;13.40;101778.00;;;;5068461;28;20195;-76
2022/04/18 03:49:59;;;;;;;6.28;5.30;;;;;13.30;101779.00;;;;5064513;28;20570;-76
2022/04/18 03:52:28;;;;;;;6.28;4.90;;;;;13.30;101786.00;;;;5065696;28;20195;-76
2022/04/18 03:54:55;;;;;;;6.18;4.80;;;;;13.30;101781.00;;;;5060099;28;20257;-76
2022/04/18 03:57:22;;;;;;;6.28;5.45;;;;;13.30;101783.00;;;;5049952;28;20203;-76
2022/04/18 03:59:51;;;;;;;5.93;4.55;;;;;13.20;101781.00;;;;5062755;28;20250;-77
2022/04/18 04:02:18;;;;;;;6.25;4.95;;;;;13.20;101772.00;;;;5064945;28;20210;-76
2022/04/18 04:04:45;;;;;;;6.18;5.22;;;;;13.20;101764.00;;;;5069008;28;20630;-76
2022/04/18 04:07:13;;;;;;;6.35;4.55;;;;;13.20;101771.00;;;;5064218;28;20199;-76
2022/04/18 04:09:41;;;;;;;5.05;4.50;;;;;13.10;101776.00;;;;5065865;28;20198;-76
2022/04/18 04:12:09;;;;;;;6.15;5.00;;;;;13.10;101765.00;;;;5063515;28;20199;-76
2022/04/18 04:14:36;;;;;;;6.50;4.90;;;;;13.10;101762.00;;;;5053438;28;21058;-76
2022/04/18 04:17:04;;;;;;;7.25;5.00;;;;;13.00;101758.00;;;;5055421;28;20260;-76
2022/04/18 04:19:31;;;;;;;6.13;4.50;;;;;13.00;101760.00;;;;5052961;28;20196;-76
2022/04/18 04:21:59;;;;;;;5.25;4.28;;;;;13.00;101769.00;;;;5067332;28;20801;-75
2022/04/18 04:24:26;;;;;;;6.15;4.60;;;;;12.90;101768.00;;;;5057642;28;20195;-76
2022/04/18 04:26:55;;;;;;;6.68;4.95;;;;;12.90;101754.00;;;;5065571;28;20199;-77
2022/04/18 04:29:22;;;;;;;7.75;4.60;;;;;12.90;101764.00;;;;5060156;28;20700;-77
2022/04/18 04:31:49;;;;;;;7.03;4.25;;;;;12.90;101762.00;;;;5061124;28;20196;-77
2022/04/18 04:34:16;;;;;;;4.85;4.28;;;;;12.80;101767.00;;;;5067328;28;20214;-77
2022/04/18 04:36:43;;;;;;;4.82;4.30;;;;;12.80;101764.00;;;;5068371;28;20297;-77
2022/04/18 04:39:11;;;;;;;7.75;5.20;;;;;12.80;101769.00;;;;5064278;28;20758;-76
2022/04/18 04:41:38;;;;;;;5.82;4.60;;;;;12.80;101772.00;;;;5054111;28;20203;-76
2022/04/18 04:44:08;;;;;;;5.43;4.50;;;;;12.70;101769.00;;;;5058182;28;20198;-76
2022/04/18 04:46:35;;;;;;;4.97;4.07;;;;;12.70;101766.00;;;;5070713;28;20203;-76
2022/04/18 04:49:03;;;;;;;7.20;4.43;;;;;12.70;101762.00;;;;5066314;28;20195;-76
2022/04/18 04:51:31;;;;;;;5.10;4.32;;;;;12.70;101769.00;;;;5077776;28;20203;-76
2022/04/18 04:53:59;;;;;;;6.15;4.93;;;;;12.70;101772.00;;;;5071742;28;20186;-77
2022/04/18 04:56:28;;;;;;;5.05;4.40;;;;;12.70;101777.00;;;;5068761;28;20226;-77
2022/04/18 04:58:55;;;;;;;6.97;4.47;;;;;12.70;101775.00;;;;5064435;28;20195;-77
2022/04/18 05:01:25;;;;;;;6.13;4.70;;;;;12.60;101779.00;;;;5077225;28;20202;-77
2022/04/18 05:03:53;;;;;;;5.28;4.10;;;;;12.70;101781.00;;;;5076622;28;20226;-76
2022/04/18 05:06:20;;;;;;;5.43;4.28;;;;;12.60;101787.00;;;;5074695;28;20230;-77
2022/04/18 05:08:48;;;;;;;5.30;4.20;;;;;12.60;101775.00;;;;5074477;28;20195;-77
2022/04/18 05:11:15;;;;;;;4.78;4.28;;;;;12.60;101779.00;;;;5064006;28;20546;-77
2022/04/18 05:13:42;;;;;;;5.35;4.22;;;;;12.70;101774.00;;;;5053825;28;20206;-77
2022/04/18 05:16:09;;;;;;;8.05;4.32;;;;;12.70;101779.00;;;;5067514;28;20218;-77
2022/04/18 05:18:38;;;;;;;5.75;3.80;;;;;12.70;101783.00;;;;5069502;28;20228;-77
2022/04/18 05:21:05;;;;;;;4.85;3.75;;;;;12.70;101782.00;;;;5067849;28;20195;-78
2022/04/18 05:23:33;;;;;;;4.90;4.05;;;;;12.70;101779.00;;;;5060243;28;20203;-76
2022/04/18 05:26:00;;;;;;;4.63;3.78;;;;;12.80;101782.00;;;;5059447;28;20259;-76
2022/04/18 05:28:27;;;;;;;5.05;3.80;;;;;12.80;101776.00;;;;5057837;28;20195;-77
2022/04/18 05:30:54;;;;;;;5.47;4.10;;;;;12.90;101778.00;;;;5056642;28;20219;-77
2022/04/18 05:33:23;;;;;;;4.95;3.53;;;;;12.90;101779.00;;;;5062904;28;20199;-76
2022/04/18 05:35:52;;;;;;;4.88;3.70;;;;;12.90;101773.00;;;;5068560;28;20264;-76
2022/04/18 05:38:19;;;;;;;5.00;3.60;;;;;13.00;101774.00;;;;5067101;28;20500;-78
2022/04/18 05:40:46;;;;;;;4.63;3.45;;;;;13.10;101787.00;;;;5073291;28;20198;-77
2022/04/18 05:43:17;;;;;;;6.63;3.65;;;;;13.10;101776.00;;;;5076983;28;20569;-76
2022/04/18 05:45:48;;;;;;;5.38;3.75;;;;;13.20;101772.00;;;;5080898;28;20225;-75
2022/04/18 05:48:16;;;;;;;5.43;3.88;;;;;13.30;101775.00;;;;5044506;28;20195;-75
2022/04/18 05:50:45;;;;;;;4.50;3.22;;;;;13.30;101785.00;;;;5069051;28;20188;-76
2022/04/18 05:53:14;;;;;;;3.75;3.00;;;;;13.40;101784.00;;;;5065960;28;20596;-76
2022/04/18 05:55:41;;;;;;;3.95;3.08;;;;;13.50;101788.00;;;;5071271;28;20767;-75
2022/04/18 05:58:09;;;;;;;4.13;3.22;;;;;13.60;101790.00;;;;5069051;28;20203;-75
2022/04/18 06:00:36;;;;;;;4.60;3.22;;;;;13.60;101794.00;;;;5067966;28;20199;-76
2022/04/18 06:03:03;;;;;;;4.30;3.55;;;;;13.70;101791.00;;;;5062372;28;20199;-77
2022/04/18 06:05:32;;;;;;;5.50;3.65;;;;;13.80;101798.00;;;;5059018;28;20207;-76
2022/04/18 06:08:00;;;;;;;4.22;3.25;;;;;13.90;101792.00;;;;5064442;28;20191;-76
2022/04/18 06:10:28;;;;;;;4.57;3.47;;;;;14.00;101792.00;;;;5063527;28;20215;-76
2022/04/18 06:12:56;;;;;;;4.07;2.97;;;;;14.10;101789.00;;;;5059561;28;20257;-76
2022/04/18 06:15:27;;;;;;;3.58;2.67;;;;;14.20;101796.00;;;;5059239;28;20198;-77
2022/04/18 06:17:54;;;;;;;4.63;2.97;;;;;14.30;101794.00;;;;5065402;28;20267;-76
2022/04/18 06:20:21;;;;;;;3.58;3.28;;;;;14.40;101788.00;;;;5068604;28;20199;-76
2022/04/18 06:22:48;;;;;;;3.95;3.17;;;;;14.40;101791.00;;;;5069750;28;20225;-76
2022/04/18 06:25:17;;;;;;;4.22;3.10;;;;;14.50;101781.00;;;;5067640;28;20198;-77
2022/04/18 06:27:45;;;;;;;4.03;3.10;;;;;14.60;101785.00;;;;5065493;28;20592;-75
2022/04/18 06:30:13;;;;;;;4.22;3.03;;;;;14.70;101778.00;;;;5065354;28;20218;-77
2022/04/18 06:32:40;;;;;;;3.72;2.85;;;;;14.80;101787.00;;;;5060295;28;20202;-76
2022/04/18 06:35:08;;;;;;;4.45;3.10;;;;;14.90;101799.00;;;;5065712;28;20199;-77
2022/04/18 06:37:35;;;;;;;5.40;3.63;;;;;15.00;101801.00;;;;5060476;28;20243;-77
2022/04/18 06:40:03;;;;;;;3.85;2.88;;;;;15.10;101796.00;;;;5063418;28;20222;-78
2022/04/18 06:42:30;;;;;;;5.13;3.42;;;;;15.20;101792.00;;;;5057481;28;20257;-77
2022/04/18 06:44:58;;;;;;;3.53;2.58;;;;;15.20;101797.00;;;;5062486;28;20261;-75
2022/04/18 06:47:26;;;;;;;3.10;2.60;;;;;15.40;101794.00;;;;5073520;28;20245;-77
2022/04/18 06:49:53;;;;;;;3.80;3.25;;;;;15.40;101799.00;;;;5059224;28;20580;-78
2022/04/18 06:52:22;;;;;;;4.65;3.03;;;;;15.50;101797.00;;;;5061306;28;20242;-76
2022/04/18 06:54:49;;;;;;;3.20;2.80;;;;;15.60;101796.00;;;;5074303;28;20248;-77
2022/04/18 06:57:17;;;;;;;3.30;3.00;;;;;15.80;101788.00;;;;5065095;28;20203;-78
2022/04/18 06:59:46;;;;;;;3.28;2.75;;;;;15.90;101789.00;;;;5071464;28;20211;-77
2022/04/18 07:02:14;;;;;;;3.05;2.63;;;;;16.00;101787.00;;;;5067096;28;20194;-77
2022/04/18 07:04:45;;;;;;;2.40;2.20;;;;;16.10;101797.00;;;;5071400;28;20199;-76
2022/04/18 07:07:14;;;;;;;2.92;2.35;;;;;16.20;101796.00;;;;5072218;28;20222;-77
2022/04/18 07:09:41;;;;;;;3.28;2.42;;;;;16.30;101792.00;;;;5063735;28;20210;-75
2022/04/18 07:12:09;;;;;;;4.07;3.05;;;;;16.40;101788.00;;;;5052935;28;20207;-76
2022/04/18 07:14:36;;;;;;;4.53;3.20;;;;;16.50;101797.00;;;;5061069;28;20268;-75
2022/04/18 07:17:05;;;;;;;3.70;2.90;;;;;16.60;101791.00;;;;5063442;28;20238;-76
2022/04/18 07:19:34;;;;;;;2.97;2.67;;;;;16.70;101798.00;;;;5038307;28;20222;-75
2022/04/18 07:22:02;;;;;;;3.30;2.45;;;;;16.90;101791.00;;;;5051324;28;20226;-76
2022/04/18 07:24:29;;;;;;;3.50;3.17;;;;;17.00;101787.00;;;;5075157;28;20203;-75
2022/04/18 07:27:00;;;;;;;4.32;2.72;;;;;17.10;101785.00;;;;5069558;28;20218;-77
2022/04/18 07:29:28;;;;;;;3.15;2.22;;;;;17.20;101789.00;;;;5070798;28;20206;-78
2022/04/18 07:31:55;;;;;;;3.03;2.60;;;;;17.30;101783.00;;;;5061750;28;20215;-78
2022/04/18 07:34:23;;;;;;;2.75;2.30;;;;;17.40;101796.00;;;;5077496;28;20569;-77
2022/04/18 07:36:51;;;;;;;3.28;2.60;;;;;17.50;101789.00;;;;5057454;28;20226;-76
2022/04/18 07:39:19;;;;;;;3.50;2.42;;;;;17.60;101780.00;;;;5070287;28;20677;-77
2022/04/18 07:41:48;;;;;;;2.88;2.35;;;;;17.70;101783.00;;;;5074625;28;20205;-76
2022/04/18 07:44:15;;;;;;;3.03;2.40;;;;;17.80;101786.00;;;;5066160;28;20214;-76
2022/04/18 07:46:43;;;;;;;3.67;3.03;;;;;17.90;101777.00;;;;5063983;28;20219;-77
2022/04/18 07:49:11;;;;;;;3.45;2.58;;;;;18.00;101780.00;;;;5066599;28;20218;-77
2022/04/18 07:51:41;;;;;;;3.55;2.60;;;;;18.10;101780.00;;;;5070045;28;20998;-78
2022/04/18 07:54:14;;;;;;;3.17;2.53;;;;;18.20;101772.00;;;;5060963;28;20572;-81
2022/04/18 07:56:43;;;;;;;3.70;2.58;;;;;18.40;101778.00;;;;5078986;28;20206;-80
2022/04/18 07:59:11;;;;;;;7.20;3.92;;;;;18.50;101774.00;;;;5078909;28;20589;-80
2022/04/18 08:01:38;;;;;;;3.25;2.45;;;;;18.60;101783.00;;;;5063532;28;20222;-80
2022/04/18 08:04:06;;;;;;;3.70;2.58;;;;;18.70;101781.00;;;;5075772;28;20217;-80
2022/04/18 08:06:34;;;;;;;3.95;2.70;;;;;18.80;101794.00;;;;5071076;28;20204;-80
2022/04/18 08:09:01;;;;;;;3.35;2.85;;;;;19.00;101787.00;;;;5062084;28;20207;-80
2022/04/18 08:11:30;;;;;;;3.53;2.70;;;;;19.10;101790.00;;;;5066362;28;20247;-80
2022/04/18 08:13:57;;;;;;;2.50;2.30;;;;;19.20;101794.00;;;;5075042;28;20207;-80
2022/04/18 08:16:24;;;;;;;2.75;2.42;;;;;19.30;101791.00;;;;5076076;28;20224;-80
2022/04/18 08:18:55;;;;;;;3.70;2.67;;;;;19.40;101792.00;;;;5071422;28;20202;-80
2022/04/18 08:21:22;;;;;;;2.92;2.60;;;;;19.60;101791.00;;;;5055048;28;20207;-80
2022/04/18 08:23:51;;;;;;;2.22;2.03;;;;;19.70;101792.00;;;;5072673;28;20203;-81
2022/04/18 08:26:19;;;;;;;2.80;2.13;;;;;19.90;101797.00;;;;5075010;28;20677;-81
2022/04/18 08:28:48;;;;;;;3.83;2.30;;;;;20.00;101792.00;;;;5078015;28;20218;-81
2022/04/18 08:31:15;;;;;;;3.50;2.50;;;;;20.10;101788.00;;;;5072193;28;20257;-81
2022/04/18 08:33:42;;;;;;;2.50;2.30;;;;;20.20;101791.00;;;;5060142;28;20230;-81
2022/04/18 08:36:09;;;;;;;2.33;2.00;;;;;20.40;101792.00;;;;5055281;28;20243;-81
2022/04/18 08:38:38;;;;;;;4.10;2.47;;;;;20.50;101790.00;;;;5070166;28;20205;-81
2022/04/18 08:41:07;;;;;;;1.95;1.75;;;;;20.60;101790.00;;;;5059710;28;20203;-81
2022/04/18 08:43:36;;;;;;;2.70;2.50;;;;;20.80;101798.00;;;;5071701;28;20199;-81
2022/04/18 08:46:06;;;;;;;2.72;2.17;;;;;20.90;101795.00;;;;5067350;28;20203;-81
2022/04/18 08:54:08;;;;;;;8.13;3.80;;;;;21.30;101795.00;;;;5057601;28;20800;-81
2022/04/18 08:56:35;;;;;;;2.25;2.05;;;;;21.40;101797.00;;;;5068881;28;20285;-81
2022/04/18 08:59:03;;;;;;;2.55;2.22;;;;;21.60;101797.00;;;;5070800;28;20707;-82
2022/04/18 09:01:31;;;;;;;2.78;2.05;;;;;21.70;101805.00;;;;5079413;28;20206;-79
2022/04/18 09:04:00;;;;;;;3.03;2.03;;;;;21.80;101799.00;;;;5067600;28;20204;-79
2022/04/18 09:06:31;;;;;;;2.17;1.90;;;;;21.80;101793.00;;;;5051920;28;20222;-80
2022/04/18 09:08:59;;;;;;;3.05;2.20;;;;;22.00;101796.00;;;;5071647;28;20258;-80
2022/04/18 09:11:30;;;;;;;1.75;1.35;;;;;22.10;101792.00;;;;5070879;28;20294;-80
2022/04/18 09:14:06;;;;;;;2.15;1.70;;;;;22.20;101793.00;;;;5075286;28;20211;-80
2022/04/18 09:16:35;;;;;;;2.28;1.58;;;;;22.30;101789.00;;;;5068304;28;20191;-80
2022/04/18 09:19:09;;;;;;;3.80;1.55;;;;;22.40;101795.00;;;;5055305;28;20203;-80
2022/04/18 09:21:44;;;;;;;1.98;1.77;;;;;22.60;101799.00;;;;5074020;28;20195;-80
2022/04/18 09:24:31;;;;;;;3.88;1.73;;;;;22.60;101791.00;;;;5071976;28;20263;-80
2022/04/18 09:26:59;;;;;;;2.10;1.90;;;;;22.70;101790.00;;;;5074265;28;20618;-80
2022/04/18 09:29:33;;;;;;;2.17;1.55;;;;;22.80;101791.00;;;;5073731;28;20236;-80
2022/04/18 09:32:07;;;;;;;2.63;1.90;;;;;22.90;101790.00;;;;5071712;28;20201;-81
2022/04/18 09:34:34;;;;;;;3.20;1.63;;;;;23.00;101785.00;;;;5066911;28;20203;-81
2022/04/18 09:37:12;;;;;;;2.05;1.70;;;;;23.00;101784.00;;;;5070879;28;20748;-80
2022/04/18 09:39:41;;;;;;;2.92;2.05;;;;;23.20;101789.00;;;;5070406;28;20206;-80
2022/04/18 09:42:14;;;;;;;3.47;2.30;;;;;23.20;101789.00;;;;5059922;28;20199;-80
2022/04/18 09:44:41;;;;;;;2.40;2.20;;;;;23.40;101793.00;;;;5060107;28;20273;-81
2022/04/18 09:47:16;;;;;;;3.45;1.98;;;;;23.40;101787.00;;;;5069768;28;20701;-81
2022/04/18 09:49:44;;;;;;;2.15;1.73;;;;;23.50;101783.00;;;;5075545;28;21148;-81
2022/04/18 09:52:15;;;;;;;3.85;1.98;;;;;23.60;101783.00;;;;5076905;28;20211;-81
2022/04/18 09:54:45;;;;;;;2.75;2.22;;;;;23.70;101787.00;;;;5077506;28;20376;-82
2022/04/18 09:57:13;;;;;;;2.70;1.98;;;;;23.80;101779.00;;;;5057052;28;20249;-81
2022/04/18 09:59:42;;;;;;;3.20;2.10;;;;;23.80;101782.00;;;;5059552;28;20203;-81
2022/04/18 10:02:14;;;;;;;2.28;2.08;;;;;23.90;101776.00;;;;5058111;28;20203;-81
2022/04/18 10:04:42;;;;;;;3.00;2.17;;;;;24.00;101770.00;;;;5063079;28;20289;-81
2022/04/18 10:07:10;;;;;;;2.08;1.70;;;;;24.10;101772.00;;;;5073127;28;20213;-81
2022/04/18 10:09:40;;;;;;;3.33;1.60;;;;;24.20;101763.00;;;;5075247;28;20275;-81
2022/04/18 10:12:09;;;;;;;2.85;1.83;;;;;24.30;101761.00;;;;5075160;28;20199;-82
2022/04/18 10:14:37;;;;;;;2.67;1.92;;;;;24.40;101766.00;;;;5066922;28;20199;-82
2022/04/18 10:17:06;;;;;;;3.25;1.88;;;;;24.50;101762.00;;;;5056781;28;20253;-81
2022/04/18 10:19:50;;;;;;;3.22;1.85;;;;;24.40;101760.00;;;;5056390;28;20195;-81
2022/04/18 10:22:59;;;;;;;1.50;1.40;;;;;24.50;101760.00;;;;5056239;28;20188;-82
2022/04/18 10:25:47;;;;;;;2.88;1.98;;;;;24.60;101760.00;;;;5075540;28;20195;-81
2022/04/18 10:28:18;;;;;;;2.10;1.65;;;;;24.70;101758.00;;;;5074203;28;20226;-81
2022/04/18 10:30:53;;;;;;;2.42;1.92;;;;;24.70;101747.00;;;;5077750;28;20217;-81
2022/04/18 10:33:22;;;;;;;2.70;1.90;;;;;24.80;101757.00;;;;5068102;28;20230;-81
2022/04/18 10:35:55;;;;;;;2.00;1.67;;;;;24.80;101744.00;;;;5056272;28;20277;-81
2022/04/18 10:38:25;;;;;;;4.10;2.10;;;;;24.90;101752.00;;;;5056714;28;20203;-82
2022/04/18 10:41:14;;;;;;;1.80;1.50;;;;;25.00;101749.00;;;;5056471;28;20210;-81
2022/04/18 10:43:58;;;;;;;2.53;2.05;;;;;24.90;101752.00;;;;5075364;28;20213;-81
2022/04/18 10:46:25;;;;;;;2.55;1.85;;;;;25.10;101752.00;;;;5075846;28;20277;-81
2022/04/18 10:48:56;;;;;;;1.75;1.30;;;;;25.10;101744.00;;;;5075276;28;20211;-81
2022/04/18 10:51:34;;;;;;;1.63;1.50;;;;;25.20;101749.00;;;;5077001;28;20240;-80
2022/04/18 10:54:12;;;;;;;1.33;1.17;;;;;25.20;101740.00;;;;5075389;28;20209;-82
2022/04/18 10:56:51;;;;;;;1.48;1.10;;;;;25.30;101743.00;;;;5075853;28;20206;-81
2022/04/18 10:59:20;;;;;;;3.20;1.23;;;;;25.40;101736.00;;;;5070307;28;20200;-81
2022/04/18 11:01:48;;;;;;;1.70;1.17;;;;;25.40;101747.00;;;;5069137;28;20282;-82
2022/04/18 11:04:16;;;;;;;1.77;1.15;;;;;25.50;101739.00;;;;5077296;28;20256;-81
2022/04/18 11:06:49;;;;;;;1.73;1.40;;;;;25.50;101733.00;;;;5076214;28;20263;-81
2022/04/18 11:09:23;;;;;;;3.30;1.70;;;;;25.60;101736.00;;;;5070506;28;20228;-82
2022/04/18 11:12:12;;;;;;;2.72;1.65;;;;;25.50;101731.00;;;;5057342;28;20199;-81
2022/04/18 11:14:51;;;;;;;1.90;1.70;;;;;25.60;101729.00;;;;5050094;28;20203;-82
2022/04/18 11:17:33;;;;;;;2.33;1.95;;;;;25.60;101729.00;;;;5074374;28;20202;-81
2022/04/18 11:20:28;;;;;;;2.17;1.80;;;;;25.70;101728.00;;;;5066196;28;20238;-82
2022/04/18 11:23:23;;;;;;;2.17;1.75;;;;;25.70;101730.00;;;;5056956;28;20326;-81
2022/04/18 11:25:58;;;;;;;1.63;1.52;;;;;25.90;101730.00;;;;5057002;28;20191;-81
2022/04/18 11:28:32;;;;;;;1.88;1.75;;;;;25.90;101734.00;;;;5055693;28;20215;-80
2022/04/18 11:31:00;;;;;;;2.25;2.05;;;;;26.00;101729.00;;;;5056217;28;20223;-81
2022/04/18 11:33:27;;;;;;;2.40;2.03;;;;;26.10;101726.00;;;;5067401;28;20202;-81
2022/04/18 11:36:02;;;;;;;2.97;2.13;;;;;26.10;101729.00;;;;5060790;28;20277;-81
2022/04/18 11:38:30;;;;;;;3.00;2.30;;;;;26.20;101718.00;;;;5060966;28;20214;-81
2022/04/18 11:40:58;;;;;;;1.92;1.70;;;;;26.30;101719.00;;;;5074837;28;20615;-81
2022/04/18 11:43:25;;;;;;;2.78;2.15;;;;;26.30;101721.00;;;;5056498;28;20196;-81
2022/04/18 11:46:03;;;;;;;2.55;2.15;;;;;26.40;101725.00;;;;5056615;28;20206;-81
2022/04/18 11:48:31;;;;;;;2.00;1.80;;;;;26.50;101730.00;;;;5056278;28;20227;-78
2022/04/18 11:50:58;;;;;;;3.13;2.60;;;;;26.50;101723.00;;;;5072598;28;20203;-79
2022/04/18 11:53:33;;;;;;;3.00;2.60;;;;;26.50;101726.00;;;;5076924;28;20202;-80
2022/04/18 11:56:04;;;;;;;2.22;2.03;;;;;26.60;101727.00;;;;5062724;28;20220;-80
2022/04/18 11:58:36;;;;;;;2.42;2.20;;;;;26.70;101719.00;;;;5076163;28;20199;-79
2022/04/18 12:06:49;;;;;;;3.50;1.90;;;;;26.70;101726.00;;;;5066488;28;20241;-79
2022/04/18 12:09:20;;;;;;;2.80;2.20;;;;;26.70;101723.00;;;;5067414;28;20281;-79
2022/04/18 12:11:47;;;;;;;2.90;1.80;;;;;26.80;101725.00;;;;5058168;28;20196;-80
2022/04/18 12:14:14;;;;;;;2.08;1.95;;;;;26.90;101716.00;;;;5054780;28;20203;-80
2022/04/18 12:16:42;;;;;;;2.00;1.48;;;;;26.90;101715.00;;;;5061141;28;20207;-79
2022/04/18 12:19:14;;;;;;;2.20;2.00;;;;;27.00;101717.00;;;;5056372;28;20207;-79
2022/04/18 12:21:41;;;;;;;1.95;1.80;;;;;27.00;101716.00;;;;5057208;28;20625;-79
2022/04/18 12:24:09;;;;;;;1.98;1.70;;;;;27.10;101712.00;;;;5053934;28;20196;-80
2022/04/18 12:26:38;;;;;;;2.42;2.08;;;;;27.10;101709.00;;;;5081780;28;20233;-80
2022/04/18 12:29:07;;;;;;;2.63;2.00;;;;;27.10;101710.00;;;;5077050;28;20219;-80
2022/04/18 12:31:38;;;;;;;4.30;2.00;;;;;27.20;101708.00;;;;5074755;28;20592;-79
2022/04/18 12:34:05;;;;;;;1.75;1.65;;;;;27.30;101701.00;;;;5058286;28;20670;-80